createdAt,value
2023-10-22T00:00:23.371Z,72.10
2023-10-22T00:02:50.338Z,71.94
2023-10-22T00:05:17.212Z,71.97
2023-10-22T00:07:44.127Z,72.08
2023-10-22T00:10:10.888Z,71.99
2023-10-22T00:12:37.720Z,72.00
2023-10-22T00:15:04.969Z,71.88
2023-10-22T00:17:34.373Z,71.93
2023-10-22T00:20:01.146Z,72.25
2023-10-22T00:22:27.944Z,71.96
2023-10-22T00:24:54.736Z,72.00
2023-10-22T00:27:21.494Z,71.76
2023-10-22T00:29:48.377Z,71.66
2023-10-22T00:32:15.204Z,71.97
2023-10-22T00:34:42.275Z,71.82
2023-10-22T00:37:09.481Z,71.74
2023-10-22T00:39:36.260Z,72.00
2023-10-22T00:42:03.500Z,71.59
2023-10-22T00:44:30.512Z,71.35
2023-10-22T00:46:57.709Z,71.27
2023-10-22T00:49:24.849Z,71.40
2023-10-22T00:51:51.690Z,71.45
2023-10-22T00:54:20.631Z,71.54
2023-10-22T00:56:49.443Z,71.71
2023-10-22T00:59:16.270Z,71.49
2023-10-22T01:01:45.881Z,71.67
2023-10-22T01:04:13.811Z,71.97
2023-10-22T01:06:40.885Z,72.07
2023-10-22T01:09:11.234Z,72.24
2023-10-22T01:11:39.370Z,72.19
2023-10-22T01:14:06.954Z,72.67
2023-10-22T01:16:34.009Z,73.09
2023-10-22T01:19:00.759Z,72.97
2023-10-22T01:21:30.523Z,72.57
2023-10-22T01:23:57.979Z,72.29
2023-10-22T01:26:25.173Z,71.73
2023-10-22T01:28:52.301Z,71.52
2023-10-22T01:31:19.315Z,71.47
2023-10-22T01:33:46.197Z,71.56
2023-10-22T01:36:13.359Z,71.37
2023-10-22T01:38:40.821Z,71.46
2023-10-22T01:41:08.153Z,71.55
2023-10-22T01:43:35.069Z,71.95
2023-10-22T01:46:01.903Z,72.13
2023-10-22T01:48:28.884Z,71.95
2023-10-22T01:50:55.741Z,71.62
2023-10-22T01:53:23.617Z,71.17
2023-10-22T01:55:50.498Z,71.08
2023-10-22T01:58:17.375Z,70.95
2023-10-22T02:00:44.343Z,70.98
2023-10-22T02:03:12.084Z,71.20
2023-10-22T02:05:39.005Z,70.90
2023-10-22T02:08:07.230Z,71.00
2023-10-22T02:10:34.887Z,70.99
2023-10-22T02:13:01.719Z,71.18
2023-10-22T02:15:28.589Z,71.02
2023-10-22T02:17:55.624Z,71.06
2023-10-22T02:20:22.853Z,71.08
2023-10-22T02:22:49.760Z,71.60
2023-10-22T02:25:16.560Z,71.36
2023-10-22T02:27:43.396Z,71.12
2023-10-22T02:30:10.774Z,70.82
2023-10-22T02:32:37.962Z,70.67
2023-10-22T02:35:05.303Z,70.63
2023-10-22T02:37:32.150Z,70.94
2023-10-22T02:39:58.902Z,70.74
2023-10-22T02:42:27.315Z,71.25
2023-10-22T02:44:54.123Z,71.68
2023-10-22T02:47:21.898Z,71.62
2023-10-22T02:49:49.093Z,71.69
2023-10-22T02:52:15.923Z,71.29
2023-10-22T02:54:43.241Z,71.87
2023-10-22T02:57:11.131Z,71.73
2023-10-22T02:59:38.058Z,71.61
2023-10-22T03:02:04.968Z,70.87
2023-10-22T03:04:31.864Z,70.77
2023-10-22T03:06:58.801Z,70.84
2023-10-22T03:09:25.761Z,70.47
2023-10-22T03:11:52.630Z,70.67
2023-10-22T03:14:21.527Z,70.86
2023-10-22T03:16:48.973Z,70.80
2023-10-22T03:19:15.998Z,71.16
2023-10-22T03:21:42.880Z,71.47
2023-10-22T03:24:13.073Z,71.44
2023-10-22T03:26:40.002Z,72.10
2023-10-22T03:29:07.989Z,72.50
2023-10-22T03:31:34.944Z,72.70
2023-10-22T03:34:01.695Z,73.06
2023-10-22T03:36:29.305Z,73.45
2023-10-22T03:38:56.147Z,73.64
2023-10-22T03:41:22.907Z,73.98
2023-10-22T03:43:50.384Z,73.94
2023-10-22T03:46:17.425Z,73.67
2023-10-22T03:48:44.506Z,73.00
2023-10-22T03:51:13.766Z,72.56
2023-10-22T03:53:41.259Z,72.48
2023-10-22T03:56:08.627Z,72.32
2023-10-22T03:58:35.575Z,71.70
2023-10-22T04:01:02.712Z,71.57
2023-10-22T04:03:29.542Z,71.17
2023-10-22T04:05:59.791Z,70.62
2023-10-22T04:08:27.210Z,70.92
2023-10-22T04:10:54.128Z,70.87
2023-10-22T04:13:21.024Z,72.13
2023-10-22T04:15:49.653Z,72.80
2023-10-22T04:18:18.162Z,73.39
2023-10-22T04:20:45.137Z,73.68
2023-10-22T04:23:12.097Z,73.73
2023-10-22T04:25:41.312Z,73.53
2023-10-22T04:28:08.601Z,73.85
2023-10-22T04:30:42.302Z,73.52
2023-10-22T04:33:09.606Z,73.39
2023-10-22T04:35:36.972Z,73.21
2023-10-22T04:38:04.466Z,73.02
2023-10-22T04:40:36.018Z,73.15
2023-10-22T04:43:03.296Z,73.13
2023-10-22T04:45:30.120Z,73.36
2023-10-22T04:47:57.118Z,73.10
2023-10-22T04:50:25.649Z,73.01
2023-10-22T04:52:53.234Z,72.63
2023-10-22T04:55:20.074Z,72.46
2023-10-22T04:57:46.913Z,72.40
2023-10-22T05:00:14.462Z,72.50
2023-10-22T05:02:41.439Z,72.35
2023-10-22T05:05:08.416Z,71.89
2023-10-22T05:07:35.172Z,71.15
2023-10-22T05:10:02.089Z,71.33
2023-10-22T05:12:28.985Z,70.92
2023-10-22T05:14:55.845Z,70.56
2023-10-22T05:17:25.658Z,70.60
2023-10-22T05:19:52.610Z,70.46
2023-10-22T05:22:19.570Z,70.54
2023-10-22T05:24:49.862Z,70.43
2023-10-22T05:27:18.505Z,70.17
2023-10-22T05:29:47.456Z,70.49
2023-10-22T05:32:17.639Z,70.94
2023-10-22T05:34:45.001Z,70.66
2023-10-22T05:37:12.063Z,70.83
2023-10-22T05:39:38.948Z,71.01
2023-10-22T05:42:06.490Z,71.71
2023-10-22T05:44:36.725Z,72.04
2023-10-22T05:47:04.971Z,72.08
2023-10-22T05:49:31.756Z,72.27
2023-10-22T05:51:58.653Z,72.19
2023-10-22T05:54:25.490Z,71.89
2023-10-22T05:56:52.791Z,71.70
2023-10-22T05:59:19.692Z,71.37
2023-10-22T06:01:46.566Z,70.65
2023-10-22T06:04:13.467Z,70.63
2023-10-22T06:06:40.392Z,70.32
2023-10-22T06:09:07.374Z,70.57
2023-10-22T06:11:35.195Z,70.52
2023-10-22T06:14:03.795Z,70.37
2023-10-22T06:16:32.269Z,70.63
2023-10-22T06:18:59.235Z,71.01
2023-10-22T06:21:25.981Z,71.05
2023-10-22T06:23:52.834Z,71.54
2023-10-22T06:26:19.666Z,71.34
2023-10-22T06:28:46.680Z,71.43
2023-10-22T06:31:14.469Z,72.23
2023-10-22T06:33:42.385Z,72.47
2023-10-22T06:36:24.265Z,72.76
2023-10-22T06:38:51.189Z,72.67
2023-10-22T06:41:20.875Z,72.54
2023-10-22T06:43:48.437Z,72.63
2023-10-22T06:46:18.444Z,72.56
2023-10-22T06:48:45.674Z,72.53
2023-10-22T06:51:13.773Z,72.45
2023-10-22T06:53:41.268Z,72.77
2023-10-22T06:56:08.175Z,72.71
2023-10-22T06:58:37.008Z,73.11
2023-10-22T07:01:08.338Z,73.41
2023-10-22T07:03:45.377Z,73.68
2023-10-22T07:06:12.598Z,74.14
2023-10-22T07:08:39.912Z,74.18
2023-10-22T07:11:06.698Z,74.34
2023-10-22T07:13:33.614Z,74.20
2023-10-22T07:16:00.567Z,74.43
2023-10-22T07:18:27.506Z,74.69
2023-10-22T07:20:54.389Z,75.10
2023-10-22T07:23:21.284Z,75.50
2023-10-22T07:25:48.506Z,75.41
2023-10-22T07:28:17.506Z,75.73
2023-10-22T07:30:48.833Z,75.99
2023-10-22T07:33:19.888Z,76.06
2023-10-22T07:35:54.442Z,77.02
2023-10-22T07:38:21.335Z,76.82
2023-10-22T07:40:48.712Z,76.92
2023-10-22T07:43:15.847Z,77.32
2023-10-22T07:45:42.838Z,77.47
2023-10-22T07:48:09.895Z,77.93
2023-10-22T07:50:36.753Z,78.08
2023-10-22T07:53:03.477Z,78.39
2023-10-22T07:55:30.395Z,78.20
2023-10-22T07:57:57.463Z,78.59
2023-10-22T08:00:24.286Z,79.04
2023-10-22T08:02:51.361Z,79.39
2023-10-22T08:05:18.304Z,79.76
2023-10-22T08:07:45.377Z,80.08
2023-10-22T08:10:12.146Z,80.24
2023-10-22T08:12:38.989Z,79.90
2023-10-22T08:15:06.682Z,80.49
2023-10-22T08:17:33.492Z,81.11
2023-10-22T08:20:01.042Z,81.66
2023-10-22T08:22:27.798Z,81.62
2023-10-22T08:24:54.542Z,81.79
2023-10-22T08:27:21.523Z,82.51
2023-10-22T08:29:48.426Z,83.24
2023-10-22T08:32:15.242Z,83.53
2023-10-22T08:34:42.002Z,83.94
2023-10-22T08:37:08.908Z,84.56
2023-10-22T08:39:35.859Z,85.40
2023-10-22T08:42:08.299Z,85.22
2023-10-22T08:44:40.069Z,84.03
2023-10-22T08:47:08.840Z,83.14
2023-10-22T08:49:36.411Z,81.76
2023-10-22T08:52:03.722Z,81.58
2023-10-22T08:54:30.476Z,81.55
2023-10-22T08:56:57.410Z,80.85
2023-10-22T08:59:24.562Z,80.26
2023-10-22T09:01:52.011Z,79.25
2023-10-22T09:04:19.066Z,78.77
2023-10-22T09:06:48.278Z,78.80
2023-10-22T09:09:35.519Z,78.59
2023-10-22T09:12:02.941Z,78.59
2023-10-22T09:14:30.013Z,78.25
2023-10-22T09:16:57.328Z,78.15
2023-10-22T09:19:41.935Z,77.70
2023-10-22T09:22:21.795Z,77.40
2023-10-22T09:24:50.733Z,76.77
2023-10-22T09:27:28.076Z,76.86
2023-10-22T09:29:55.710Z,76.85
2023-10-22T09:32:22.577Z,76.99
2023-10-22T09:34:49.340Z,76.91
2023-10-22T09:37:16.218Z,76.71
2023-10-22T09:39:44.294Z,76.22
2023-10-22T09:42:17.976Z,75.81
2023-10-22T09:44:45.976Z,76.21
2023-10-22T09:47:25.496Z,75.59
2023-10-22T09:49:54.706Z,75.91
2023-10-22T09:52:22.950Z,76.04
2023-10-22T09:54:51.443Z,75.39
2023-10-22T09:57:21.043Z,75.26
2023-10-22T09:59:48.521Z,75.33
2023-10-22T10:02:23.376Z,75.11
2023-10-22T10:04:50.985Z,75.17
2023-10-22T10:07:18.683Z,74.66
2023-10-22T10:09:46.404Z,74.70
2023-10-22T10:12:14.383Z,74.36
2023-10-22T10:14:44.730Z,74.29
2023-10-22T10:17:12.608Z,74.30
2023-10-22T10:19:39.348Z,73.83
2023-10-22T10:22:06.433Z,73.44
2023-10-22T10:24:33.989Z,73.42
2023-10-22T10:27:00.855Z,73.54
2023-10-22T10:29:29.306Z,73.63
2023-10-22T10:32:13.840Z,73.40
2023-10-22T10:34:44.198Z,73.72
2023-10-22T10:37:16.945Z,73.45
2023-10-22T10:39:44.177Z,73.62
2023-10-22T10:42:12.386Z,73.46
2023-10-22T10:44:57.850Z,73.17
2023-10-22T10:47:30.537Z,73.75
2023-10-22T10:50:05.115Z,73.48
2023-10-22T10:52:36.234Z,73.72
2023-10-22T10:55:33.508Z,73.47
2023-10-22T10:58:01.126Z,74.08
2023-10-22T11:00:31.757Z,73.94
2023-10-22T11:03:04.595Z,73.75
2023-10-22T11:05:40.950Z,73.33
2023-10-22T11:08:19.725Z,72.28
2023-10-22T11:10:47.142Z,72.22
2023-10-22T11:13:15.107Z,71.81
2023-10-22T11:15:42.338Z,71.69
2023-10-22T11:18:11.242Z,71.58
2023-10-22T11:20:43.132Z,70.23
2023-10-22T11:23:19.223Z,69.77
2023-10-22T11:25:46.673Z,70.32
2023-10-22T11:28:13.761Z,70.09
2023-10-22T11:30:42.750Z,70.33
2023-10-22T11:33:12.938Z,70.31
2023-10-22T11:35:39.917Z,69.90
2023-10-22T11:38:07.557Z,69.86
2023-10-22T11:40:38.001Z,69.78
2023-10-22T11:43:15.135Z,68.69
2023-10-22T11:45:52.607Z,69.40
2023-10-22T11:48:28.023Z,69.38
2023-10-22T11:51:00.765Z,69.10
2023-10-22T11:53:48.975Z,68.97
2023-10-22T11:56:15.898Z,69.35
2023-10-22T11:58:44.354Z,69.28
2023-10-22T12:01:11.356Z,69.01
2023-10-22T12:03:38.232Z,68.70
2023-10-22T12:06:05.279Z,68.72
2023-10-22T12:08:32.152Z,68.58
2023-10-22T12:10:59.013Z,68.76
2023-10-22T12:13:26.025Z,68.75
2023-10-22T12:15:53.157Z,68.90
2023-10-22T12:18:20.054Z,69.04
2023-10-22T12:20:47.024Z,69.31
2023-10-22T12:23:13.909Z,69.43
2023-10-22T12:25:40.824Z,69.08
2023-10-22T12:28:07.788Z,69.10
2023-10-22T12:30:35.887Z,69.09
2023-10-22T12:33:03.253Z,69.23
2023-10-22T12:35:30.126Z,67.80
2023-10-22T12:37:56.939Z,68.09
2023-10-22T12:40:23.803Z,68.28
2023-10-22T12:42:50.937Z,68.27
2023-10-22T12:45:18.316Z,67.69
2023-10-22T12:47:47.431Z,67.87
2023-10-22T12:50:14.511Z,67.75
2023-10-22T12:52:41.684Z,67.66
2023-10-22T12:55:08.850Z,67.86
2023-10-22T12:57:35.941Z,67.49
2023-10-22T13:00:13.509Z,66.68
2023-10-22T13:02:41.761Z,67.36
2023-10-22T13:05:09.220Z,67.06
2023-10-22T13:07:37.371Z,67.39
2023-10-22T13:10:05.653Z,67.00
2023-10-22T13:12:32.988Z,66.29
2023-10-22T13:14:59.967Z,65.74
2023-10-22T13:17:26.866Z,65.89
2023-10-22T13:19:53.947Z,65.69
2023-10-22T13:22:20.690Z,65.70
2023-10-22T13:24:47.462Z,65.87
2023-10-22T13:27:14.276Z,65.62
2023-10-22T13:29:40.995Z,65.81
2023-10-22T13:32:07.918Z,65.74
2023-10-22T13:34:38.774Z,65.97
2023-10-22T13:37:10.252Z,66.13
2023-10-22T13:39:37.169Z,66.22
2023-10-22T13:42:04.325Z,65.81
2023-10-22T13:44:31.181Z,65.89
2023-10-22T13:46:58.074Z,66.36
2023-10-22T13:49:25.015Z,66.19
2023-10-22T13:51:51.836Z,66.23
2023-10-22T13:54:18.734Z,66.26
2023-10-22T13:56:45.490Z,66.07
2023-10-22T13:59:14.394Z,65.99
2023-10-22T14:01:41.894Z,66.14
2023-10-22T14:04:08.831Z,66.08
2023-10-22T14:06:35.851Z,66.04
2023-10-22T14:09:02.683Z,66.12
2023-10-22T14:11:29.615Z,66.11
2023-10-22T14:13:59.189Z,66.05
2023-10-22T14:16:26.044Z,66.45
2023-10-22T14:18:53.063Z,67.04
2023-10-22T14:21:21.610Z,67.26
2023-10-22T14:23:48.551Z,67.44
2023-10-22T14:26:15.385Z,67.35
2023-10-22T14:28:42.180Z,67.04
2023-10-22T14:31:09.230Z,66.98
2023-10-22T14:33:36.231Z,67.53
2023-10-22T14:36:04.311Z,67.77
2023-10-22T14:38:31.241Z,68.31
2023-10-22T14:40:58.247Z,68.32
2023-10-22T14:43:25.080Z,68.64
2023-10-22T14:45:52.027Z,68.69
2023-10-22T14:48:18.890Z,68.13
2023-10-22T14:50:59.699Z,67.72
2023-10-22T14:53:26.598Z,68.01
2023-10-22T14:56:04.417Z,67.93
2023-10-22T14:58:31.599Z,68.30
2023-10-22T15:01:05.555Z,69.94
2023-10-22T15:03:32.795Z,70.48
2023-10-22T15:06:00.261Z,70.59
2023-10-22T15:08:27.275Z,70.54
2023-10-22T15:10:54.807Z,70.44
2023-10-22T15:13:22.600Z,70.29
2023-10-22T15:15:49.606Z,70.85
2023-10-22T15:18:16.747Z,71.79
2023-10-22T15:20:51.585Z,71.99
2023-10-22T15:23:19.148Z,72.61
2023-10-22T15:25:47.632Z,72.72
2023-10-22T15:28:14.750Z,72.57
2023-10-22T15:30:42.180Z,72.35
2023-10-22T15:33:09.470Z,72.18
2023-10-22T15:35:36.458Z,72.43
2023-10-22T15:38:05.249Z,72.55
2023-10-22T15:40:32.533Z,72.41
2023-10-22T15:42:59.736Z,72.63
2023-10-22T15:45:26.966Z,72.90
2023-10-22T15:47:54.441Z,73.32
2023-10-22T15:50:22.496Z,73.60
2023-10-22T15:52:49.939Z,74.10
2023-10-22T15:55:17.137Z,74.44
2023-10-22T15:57:43.912Z,74.63
2023-10-22T16:00:12.129Z,74.83
2023-10-22T16:02:39.019Z,75.16
2023-10-22T16:05:09.540Z,75.55
2023-10-22T16:14:27.759Z,75.85
2023-10-22T16:15:16.671Z,75.55
2023-10-22T16:16:54.716Z,76.09
2023-10-22T16:19:21.457Z,75.89
2023-10-22T16:21:48.161Z,75.94
2023-10-22T16:24:14.903Z,75.97
2023-10-22T16:26:41.769Z,76.21
2023-10-22T16:29:08.544Z,76.21
2023-10-22T16:31:35.414Z,76.57
2023-10-22T16:34:02.304Z,76.49
2023-10-22T16:36:29.148Z,76.40
2023-10-22T16:38:55.955Z,76.50
2023-10-22T16:41:22.773Z,76.87
2023-10-22T16:43:49.667Z,76.97
2023-10-22T16:46:17.144Z,76.91
2023-10-22T16:48:44.022Z,76.98
2023-10-22T16:51:11.086Z,77.22
2023-10-22T16:53:38.011Z,77.07
2023-10-22T16:56:05.046Z,77.65
2023-10-22T16:58:33.332Z,77.44
2023-10-22T17:01:07.107Z,77.95
2023-10-22T17:03:35.048Z,77.47
2023-10-22T17:06:02.990Z,77.45
2023-10-22T17:08:29.775Z,77.82
2023-10-22T17:10:56.579Z,77.33
2023-10-22T17:13:23.649Z,77.52
2023-10-22T17:15:50.553Z,77.43
2023-10-22T17:18:18.369Z,77.52
2023-10-22T17:20:45.431Z,77.31
2023-10-22T17:23:12.307Z,77.57
2023-10-22T17:25:46.998Z,78.07
2023-10-22T17:28:13.898Z,77.69
2023-10-22T17:30:41.019Z,77.43
2023-10-22T17:33:10.207Z,77.46
2023-10-22T17:35:37.738Z,77.75
2023-10-22T17:38:04.926Z,77.53
2023-10-22T17:40:38.221Z,77.83
2023-10-22T17:43:05.635Z,77.50
2023-10-22T17:45:42.434Z,78.05
2023-10-22T17:48:10.000Z,77.72
2023-10-22T17:50:37.070Z,77.75
2023-10-22T17:53:19.619Z,77.73
2023-10-22T17:56:08.885Z,78.22
2023-10-22T17:58:36.926Z,77.64
2023-10-22T18:01:04.023Z,78.13
2023-10-22T18:03:31.214Z,78.71
2023-10-22T18:06:02.357Z,78.67
2023-10-22T18:08:30.000Z,78.31
2023-10-22T18:10:58.428Z,78.44
2023-10-22T18:13:29.081Z,78.04
2023-10-22T18:15:56.855Z,77.99
2023-10-22T18:18:24.447Z,78.23
2023-10-22T18:20:53.133Z,78.41
2023-10-22T18:23:21.649Z,78.50
2023-10-22T18:25:59.374Z,78.55
2023-10-22T18:28:26.478Z,78.41
2023-10-22T18:32:10.586Z,78.68
2023-10-22T18:34:37.876Z,78.43
2023-10-22T18:37:05.158Z,78.45
2023-10-22T18:39:32.276Z,78.47
2023-10-22T18:42:12.017Z,78.45
2023-10-22T18:44:42.288Z,78.58
2023-10-22T18:47:09.328Z,78.62
2023-10-22T18:49:36.166Z,78.92
2023-10-22T18:52:03.067Z,78.68
2023-10-22T18:54:29.937Z,78.82
2023-10-22T18:56:56.861Z,78.60
2023-10-22T18:59:23.875Z,79.17
2023-10-22T19:01:51.014Z,79.04
2023-10-22T19:04:18.094Z,78.96
2023-10-22T19:06:45.099Z,78.84
2023-10-22T19:09:12.652Z,78.84
2023-10-22T19:11:40.353Z,78.88
2023-10-22T19:14:07.468Z,78.56
2023-10-22T19:16:34.530Z,78.56
2023-10-22T19:19:01.501Z,78.86
2023-10-22T19:21:29.092Z,78.51
2023-10-22T19:23:56.072Z,78.36
2023-10-22T19:26:23.107Z,78.59
2023-10-22T19:28:50.162Z,78.69
2023-10-22T19:31:17.325Z,78.59
2023-10-22T19:33:44.459Z,78.83
2023-10-22T19:36:18.945Z,78.70
2023-10-22T19:38:46.657Z,78.81
2023-10-22T19:41:20.080Z,78.65
2023-10-22T19:43:46.967Z,78.46
2023-10-22T19:46:14.157Z,78.59
2023-10-22T19:48:43.234Z,78.86
2023-10-22T19:51:10.113Z,78.69
2023-10-22T19:53:37.062Z,78.63
2023-10-22T19:56:04.228Z,78.71
2023-10-22T19:58:31.386Z,78.61
2023-10-22T20:00:58.619Z,78.63
2023-10-22T20:03:25.756Z,78.81
2023-10-22T20:05:53.615Z,78.90
2023-10-22T20:08:20.507Z,78.74
2023-10-22T20:10:47.977Z,78.60
2023-10-22T20:13:14.802Z,78.97
2023-10-22T20:15:41.711Z,78.60
2023-10-22T20:18:09.493Z,78.77
2023-10-22T20:20:36.928Z,78.56
2023-10-22T20:23:03.802Z,78.27
2023-10-22T20:25:30.636Z,78.59
2023-10-22T20:28:05.897Z,78.76
2023-10-22T20:30:34.778Z,78.56
2023-10-22T20:33:01.663Z,78.73
2023-10-22T20:35:28.532Z,78.60
2023-10-22T20:37:55.331Z,78.53
2023-10-22T20:40:32.719Z,78.38
2023-10-22T20:43:05.646Z,78.63
2023-10-22T20:45:34.536Z,78.52
2023-10-22T20:48:01.515Z,78.59
2023-10-22T20:50:29.649Z,78.54
2023-10-22T20:52:56.435Z,78.53
2023-10-22T20:55:23.298Z,78.33
2023-10-22T20:57:50.206Z,78.30
2023-10-22T21:00:17.291Z,78.66
2023-10-22T21:02:44.146Z,78.40
2023-10-22T21:05:10.947Z,78.57
2023-10-22T21:07:37.926Z,78.10
2023-10-22T21:10:05.701Z,78.30
2023-10-22T21:12:32.558Z,78.40
2023-10-22T21:14:59.380Z,78.31
2023-10-22T21:17:26.187Z,78.15
2023-10-22T21:19:53.005Z,78.06
2023-10-22T21:22:19.734Z,78.20
2023-10-22T21:24:46.574Z,78.04
2023-10-22T21:27:13.737Z,77.63
2023-10-22T21:29:41.788Z,77.88
2023-10-22T21:32:08.641Z,77.82
2023-10-22T21:34:35.532Z,78.07
2023-10-22T21:37:02.381Z,77.89
2023-10-22T21:39:29.330Z,77.95
2023-10-22T21:41:56.209Z,78.03
2023-10-22T21:44:23.105Z,78.12
2023-10-22T21:46:49.893Z,78.18
2023-10-22T21:49:16.842Z,78.16
2023-10-22T21:51:43.882Z,78.29
2023-10-22T21:54:10.882Z,78.31
2023-10-22T21:56:37.783Z,78.22
2023-10-22T21:59:04.797Z,78.18
2023-10-22T22:01:36.782Z,78.40
2023-10-22T22:04:03.699Z,78.20
2023-10-22T22:06:30.598Z,78.17
2023-10-22T22:08:57.527Z,78.15
2023-10-22T22:11:24.385Z,78.25
2023-10-22T22:13:51.135Z,78.15
2023-10-22T22:16:18.113Z,77.80
2023-10-22T22:18:45.022Z,77.73
2023-10-22T22:21:11.882Z,77.73
2023-10-22T22:23:38.764Z,77.81
2023-10-22T22:26:05.511Z,77.78
2023-10-22T22:28:32.852Z,77.49
2023-10-22T22:31:01.326Z,77.27
2023-10-22T22:33:28.278Z,77.43
2023-10-22T22:35:55.102Z,77.12
2023-10-22T22:38:21.943Z,76.89
2023-10-22T22:40:48.751Z,76.66
2023-10-22T22:43:15.638Z,76.30
2023-10-22T22:45:42.603Z,76.14
2023-10-22T22:48:09.703Z,76.12
2023-10-22T22:50:36.528Z,76.05
2023-10-22T22:53:03.357Z,75.95
2023-10-22T22:55:30.223Z,75.84
2023-10-22T22:57:57.008Z,75.86
2023-10-22T23:00:23.911Z,75.64
2023-10-22T23:02:51.060Z,75.89
2023-10-22T23:05:18.025Z,75.79
2023-10-22T23:07:45.187Z,75.81
2023-10-22T23:10:12.103Z,75.82
2023-10-22T23:12:38.911Z,75.95
2023-10-22T23:15:07.311Z,75.61
2023-10-22T23:17:34.194Z,75.93
2023-10-22T23:20:01.038Z,75.73
2023-10-22T23:22:27.885Z,75.56
2023-10-22T23:24:54.953Z,75.31
2023-10-22T23:27:21.873Z,75.31
2023-10-22T23:29:48.675Z,75.29
2023-10-22T23:32:15.514Z,75.80
2023-10-22T23:34:42.430Z,75.95
2023-10-22T23:37:09.293Z,76.25
2023-10-22T23:39:36.078Z,76.11
2023-10-22T23:42:03.018Z,76.73
2023-10-22T23:44:29.925Z,76.67
2023-10-22T23:46:56.784Z,76.65
2023-10-22T23:49:24.538Z,76.57
2023-10-22T23:51:51.415Z,76.57
2023-10-22T23:54:18.682Z,76.69
2023-10-22T23:56:45.665Z,76.47
2023-10-22T23:59:12.437Z,75.99
